createdAt,value
2024-03-13T00:01:52.160Z,56.80
2024-03-13T00:06:55.919Z,56.00
2024-03-13T00:11:57.431Z,43.50
2024-03-13T00:16:59.006Z,37.60
2024-03-13T00:22:05.606Z,38.80
2024-03-13T00:27:07.290Z,38.20
2024-03-13T00:32:08.888Z,38.80
2024-03-13T00:37:11.145Z,40.60
2024-03-13T00:42:13.126Z,36.80
2024-03-13T00:47:20.249Z,41.20
2024-03-13T00:52:22.956Z,42.00
2024-03-13T00:57:25.132Z,36.80
2024-03-13T01:02:27.326Z,36.10
2024-03-13T01:07:28.953Z,42.60
2024-03-13T01:12:30.589Z,41.20
2024-03-13T01:17:32.958Z,38.60
2024-03-13T01:22:34.867Z,39.00
2024-03-13T01:27:36.987Z,36.40
2024-03-13T01:32:38.870Z,33.60
2024-03-13T01:37:59.244Z,37.60
2024-03-13T01:43:19.614Z,33.10
2024-03-13T01:48:39.994Z,34.40
2024-03-13T01:54:00.794Z,35.90
2024-03-13T01:59:20.649Z,41.30
2024-03-13T02:04:22.259Z,43.20
2024-03-13T02:09:25.108Z,40.60
2024-03-13T02:14:28.869Z,42.40
2024-03-13T02:19:32.315Z,36.80
2024-03-13T02:24:34.445Z,41.20
2024-03-13T02:29:37.150Z,44.20
2024-03-13T02:34:44.257Z,42.00
2024-03-13T02:39:45.993Z,36.20
2024-03-13T02:44:47.520Z,39.00
2024-03-13T02:49:48.996Z,34.40
2024-03-13T02:54:52.486Z,35.30
2024-03-13T02:59:54.070Z,39.20
2024-03-13T03:04:57.361Z,32.10
2024-03-13T03:10:00.471Z,37.40
2024-03-13T03:15:02.193Z,37.40
2024-03-13T03:20:06.889Z,35.90
2024-03-13T03:25:10.296Z,37.40
2024-03-13T03:30:12.602Z,39.00
2024-03-13T03:35:14.161Z,42.70
2024-03-13T03:40:18.828Z,37.60
2024-03-13T03:45:20.370Z,37.00
2024-03-13T03:50:21.961Z,37.70
2024-03-13T03:55:23.593Z,34.80
2024-03-13T04:00:25.198Z,33.80
2024-03-13T04:05:28.619Z,35.40
2024-03-13T04:10:30.272Z,30.40
2024-03-13T04:15:31.892Z,36.10
2024-03-13T04:20:34.132Z,39.20
2024-03-13T04:25:39.585Z,36.80
2024-03-13T04:30:41.296Z,38.60
2024-03-13T04:35:45.815Z,39.70
2024-03-13T04:40:47.351Z,38.50
2024-03-13T04:45:48.959Z,37.00
2024-03-13T04:50:50.475Z,43.00
2024-03-13T04:55:52.112Z,45.30
2024-03-13T05:00:53.681Z,43.10
2024-03-13T05:05:55.564Z,44.00
2024-03-13T05:10:57.239Z,47.10
2024-03-13T05:15:58.846Z,42.30
2024-03-13T05:21:01.355Z,39.60
2024-03-13T05:26:03.139Z,48.70
2024-03-13T05:31:04.737Z,47.80
2024-03-13T05:36:08.574Z,56.20
2024-03-13T05:41:10.198Z,51.70
2024-03-13T05:46:12.545Z,42.70
2024-03-13T05:51:14.116Z,53.40
2024-03-13T05:56:15.773Z,62.90
2024-03-13T06:01:23.347Z,64.70
2024-03-13T06:06:28.196Z,52.60
2024-03-13T06:11:29.776Z,62.00
2024-03-13T06:16:31.590Z,51.10
2024-03-13T06:21:33.162Z,46.30
2024-03-13T06:26:41.192Z,50.30
2024-03-13T06:31:44.098Z,47.80
2024-03-13T06:36:45.632Z,39.70
2024-03-13T06:41:48.384Z,49.00
2024-03-13T06:46:51.680Z,60.00
2024-03-13T06:51:53.280Z,65.20
2024-03-13T06:56:55.087Z,52.20
2024-03-13T07:01:56.783Z,56.80
2024-03-13T07:06:58.556Z,53.90
2024-03-13T07:12:00.224Z,55.20
2024-03-13T07:17:01.794Z,49.70
2024-03-13T07:22:04.084Z,55.60
2024-03-13T07:27:05.663Z,56.00
2024-03-13T07:32:07.369Z,47.10
2024-03-13T07:37:10.770Z,51.80
2024-03-13T07:42:12.374Z,52.70
2024-03-13T07:47:14.117Z,56.20
2024-03-13T07:52:16.414Z,55.90
2024-03-13T07:57:18.522Z,62.00
2024-03-13T08:02:20.188Z,56.50
2024-03-13T09:06:16.021Z,67.50
2024-03-13T09:11:18.466Z,82.80
2024-03-13T09:16:20.591Z,64.30
2024-03-13T09:21:22.168Z,70.40
2024-03-13T09:26:23.815Z,70.40
2024-03-13T09:31:25.451Z,63.30
2024-03-13T09:36:27.453Z,83.20
2024-03-13T09:41:29.483Z,82.10
2024-03-13T09:46:33.520Z,78.10
2024-03-13T09:51:37.064Z,88.40
2024-03-13T09:56:41.484Z,70.50
2024-03-13T10:01:49.857Z,82.40
2024-03-13T10:06:59.549Z,80.20
2024-03-13T10:12:05.787Z,85.70
2024-03-13T10:17:13.537Z,82.50
2024-03-13T10:22:15.252Z,115.60
2024-03-13T10:27:17.392Z,99.70
2024-03-13T10:32:19.794Z,83.00
2024-03-13T10:37:23.215Z,73.30
2024-03-13T10:42:24.832Z,72.00
2024-03-13T10:47:28.484Z,77.30
2024-03-13T10:52:30.085Z,71.60
2024-03-13T10:57:32.051Z,77.00
2024-03-13T11:02:34.750Z,80.10
2024-03-13T11:07:36.274Z,83.10
2024-03-13T11:12:45.956Z,71.30
2024-03-13T11:17:57.406Z,74.90
2024-03-13T11:23:11.624Z,96.00
2024-03-13T11:28:32.538Z,76.90
2024-03-13T11:33:35.821Z,100.70
2024-03-13T11:38:39.431Z,81.90
2024-03-13T11:43:41.821Z,71.60
2024-03-13T11:48:43.560Z,88.30
2024-03-13T11:53:45.830Z,79.20
2024-03-13T11:58:48.293Z,79.10
2024-03-13T12:03:54.455Z,80.20
2024-03-13T12:08:56.998Z,88.20
2024-03-13T12:14:00.265Z,70.40
2024-03-13T12:19:03.016Z,285.10
2024-03-13T12:24:05.084Z,72.40
2024-03-13T12:29:06.806Z,81.40
2024-03-13T12:34:10.743Z,61.70
2024-03-13T12:39:12.966Z,57.40
2024-03-13T12:44:16.039Z,54.70
2024-03-13T12:49:17.746Z,68.10
2024-03-13T12:54:19.420Z,45.70
2024-03-13T12:59:23.910Z,60.70
2024-03-13T13:04:25.745Z,55.20
2024-03-13T13:09:27.585Z,62.70
2024-03-13T13:14:30.689Z,55.70
2024-03-13T13:20:07.286Z,53.90
2024-03-13T13:25:09.292Z,59.90
2024-03-13T13:30:13.914Z,75.40
2024-03-13T13:35:21.277Z,57.90
2024-03-13T13:40:24.241Z,62.00
2024-03-13T13:45:28.088Z,54.20
2024-03-13T13:50:29.792Z,78.60
2024-03-13T13:55:31.734Z,64.00
2024-03-13T14:00:33.460Z,58.90
2024-03-13T14:05:35.803Z,61.90
2024-03-13T14:11:05.850Z,61.80
2024-03-13T14:16:10.058Z,62.90
2024-03-13T14:21:17.378Z,53.00
2024-03-13T14:26:29.403Z,60.50
2024-03-13T14:32:36.972Z,71.90
2024-03-13T14:37:15.642Z,60.00
2024-03-13T14:42:28.305Z,57.70
2024-03-13T14:47:42.046Z,59.40
2024-03-13T14:52:54.505Z,73.90
2024-03-13T14:58:05.020Z,59.80
2024-03-13T15:03:07.380Z,56.60
2024-03-13T15:08:14.761Z,72.10
2024-03-13T15:13:16.528Z,64.90
2024-03-13T15:18:18.458Z,64.00
2024-03-13T15:23:20.223Z,76.70
2024-03-13T15:28:21.895Z,79.50
2024-03-13T15:33:23.608Z,104.50
2024-03-13T15:38:25.262Z,74.50
2024-03-13T15:43:26.820Z,72.80
2024-03-13T15:48:28.486Z,119.80
2024-03-13T15:53:30.879Z,78.10
2024-03-13T15:58:33.098Z,73.40
2024-03-13T16:03:34.775Z,69.80
2024-03-13T16:08:50.543Z,74.60
2024-03-13T16:13:54.052Z,78.70
2024-03-13T16:18:56.751Z,77.30
2024-03-13T16:23:58.960Z,77.40
2024-03-13T16:29:00.818Z,65.30
2024-03-13T16:34:03.380Z,77.10
2024-03-13T16:39:07.809Z,115.90
2024-03-13T16:44:09.630Z,83.20
2024-03-13T16:49:12.562Z,81.60
2024-03-13T16:54:14.297Z,84.80
2024-03-13T16:59:16.032Z,78.50
2024-03-13T17:04:17.685Z,65.20
2024-03-13T17:09:19.451Z,69.60
2024-03-13T17:14:23.316Z,54.60
2024-03-13T17:19:26.441Z,70.50
2024-03-13T17:24:28.290Z,89.30
2024-03-13T17:29:33.318Z,67.90
2024-03-13T17:34:35.479Z,68.40
2024-03-13T17:39:38.085Z,56.40
2024-03-13T17:44:41.094Z,57.10
2024-03-13T17:49:45.075Z,80.60
2024-03-13T17:54:46.864Z,80.60
2024-03-13T17:59:48.815Z,98.70
2024-03-13T18:04:50.590Z,138.70
2024-03-13T18:09:52.103Z,120.20
2024-03-13T18:14:54.938Z,107.80
2024-03-13T18:19:56.668Z,146.00
2024-03-13T18:24:58.484Z,184.00
2024-03-13T18:30:04.953Z,140.40
2024-03-13T18:35:10.281Z,117.80
2024-03-13T18:40:16.015Z,105.60
2024-03-13T18:45:17.520Z,96.80
2024-03-13T18:50:19.201Z,97.20
2024-03-13T18:55:23.476Z,81.60
2024-03-13T19:00:27.415Z,72.20
2024-03-13T19:05:29.173Z,115.70
2024-03-13T19:10:31.581Z,116.90
2024-03-13T19:15:35.177Z,112.00
2024-03-13T19:20:38.643Z,102.80
2024-03-13T19:25:40.159Z,91.90
2024-03-13T19:30:42.572Z,97.00
2024-03-13T19:35:45.791Z,97.20
2024-03-13T19:40:47.339Z,95.90
2024-03-13T19:45:49.112Z,94.90
2024-03-13T19:50:50.689Z,94.40
2024-03-13T19:55:52.261Z,79.40
2024-03-13T20:00:54.143Z,65.60
2024-03-13T20:05:56.439Z,72.90
2024-03-13T20:11:00.763Z,71.40
2024-03-13T20:16:02.989Z,66.20
2024-03-13T20:21:04.941Z,63.80
2024-03-13T20:26:06.551Z,74.10
2024-03-13T20:31:08.060Z,63.50
2024-03-13T20:36:10.605Z,70.80
2024-03-13T20:41:12.320Z,61.90
2024-03-13T20:46:14.058Z,59.80
2024-03-13T20:51:15.866Z,63.40
2024-03-13T20:56:17.478Z,69.70
2024-03-13T21:01:20.300Z,70.50
2024-03-13T21:06:21.895Z,70.20
2024-03-13T21:11:23.661Z,64.80
2024-03-13T21:16:25.455Z,72.70
2024-03-13T21:21:27.072Z,66.40
2024-03-13T21:26:28.799Z,71.50
2024-03-13T21:31:31.013Z,78.20
2024-03-13T21:36:33.560Z,68.10
2024-03-13T21:41:37.385Z,80.20
2024-03-13T21:46:38.913Z,76.20
2024-03-13T21:51:40.946Z,68.50
2024-03-13T21:56:42.771Z,72.40
2024-03-13T22:01:44.652Z,74.40
2024-03-13T22:06:46.151Z,74.30
2024-03-13T22:11:47.794Z,78.00
2024-03-13T22:16:50.922Z,72.70
2024-03-13T22:21:53.119Z,68.70
2024-03-13T22:26:54.682Z,68.50
2024-03-13T22:31:56.230Z,61.40
2024-03-13T22:36:58.896Z,61.70
2024-03-13T22:42:00.522Z,61.80
2024-03-13T22:47:05.891Z,59.40
2024-03-13T22:52:07.477Z,62.80
2024-03-13T22:57:09.030Z,65.40
2024-03-13T23:02:10.634Z,60.00
2024-03-13T23:07:14.179Z,67.20
2024-03-13T23:12:15.796Z,62.60
2024-03-13T23:17:17.351Z,63.20
2024-03-13T23:22:19.451Z,66.30
2024-03-13T23:27:21.422Z,81.70
2024-03-13T23:32:23.876Z,70.90
2024-03-13T23:37:25.862Z,65.30
2024-03-13T23:42:41.850Z,71.70
2024-03-13T23:47:45.491Z,75.30
2024-03-13T23:52:47.115Z,77.90
2024-03-13T23:57:49.805Z,66.60
